Time;durP1;ratioP1;P1;durP2;ratioP2;P2;SDS_P1;SDS_P2;PMS_P1;PMS_P2;Temp;Humidity;BMP_temperature;BMP_pressure;BME280_temperature;BME280_humidity;BME280_pressure;Samples;Min_cycle;Max_cycle;Signal;HPM_P1;HPM_P2
2023/09/30 00:03:23;;;;;;;5.95;2.10;;;23.50;80.40;;;;;;10498599;28;20496;-31
2023/09/30 00:08:25;;;;;;;2.92;1.90;;;23.50;80.40;;;;;;10496840;28;20068;-31
2023/09/30 00:13:28;;;;;;;4.28;1.70;;;23.50;80.20;;;;;;10499796;28;20072;-33
2023/09/30 00:18:30;;;;;;;4.32;2.15;;;23.50;80.30;;;;;;10508338;28;20547;-35
2023/09/30 00:23:32;;;;;;;4.25;1.88;;;23.40;80.20;;;;;;10499977;28;20043;-32
2023/09/30 00:28:35;;;;;;;5.32;2.10;;;23.40;80.50;;;;;;10497639;28;20067;-33
2023/09/30 00:33:37;;;;;;;3.67;1.50;;;23.40;80.40;;;;;;10505240;28;20032;-30
2023/09/30 00:38:39;;;;;;;5.28;2.05;;;23.40;80.20;;;;;;10494589;28;20131;-31
2023/09/30 00:43:43;;;;;;;3.40;1.50;;;23.40;80.20;;;;;;10483982;28;20043;-31
2023/09/30 00:48:45;;;;;;;4.05;1.88;;;23.40;80.20;;;;;;10485400;28;20041;-32
2023/09/30 00:53:47;;;;;;;4.15;1.90;;;23.30;80.10;;;;;;10501551;28;20469;-31
2023/09/30 00:58:51;;;;;;;5.18;1.90;;;23.30;80.40;;;;;;10484861;28;20128;-30
2023/09/30 01:03:53;;;;;;;3.78;1.48;;;23.30;80.30;;;;;;10505816;28;20069;-29
2023/09/30 01:08:55;;;;;;;4.03;1.92;;;23.30;80.20;;;;;;10495132;28;20485;-31
2023/09/30 01:13:58;;;;;;;2.67;1.48;;;23.30;80.10;;;;;;10483233;28;20512;-32
2023/09/30 01:19:02;;;;;;;4.97;1.90;;;23.30;80.30;;;;;;10509617;28;20111;-31
2023/09/30 01:24:06;;;;;;;3.97;1.50;;;23.20;80.30;;;;;;10498907;28;20461;-33
2023/09/30 01:29:10;;;;;;;3.67;1.83;;;23.20;80.30;;;;;;10503936;28;20041;-32
2023/09/30 01:34:12;;;;;;;4.43;2.20;;;23.20;80.50;;;;;;10513183;28;20056;-56
2023/09/30 01:39:16;;;;;;;3.22;2.00;;;23.20;80.30;;;;;;10495191;28;20084;-30
2023/09/30 01:44:17;;;;;;;3.40;1.73;;;23.20;80.20;;;;;;10508724;28;20533;-31
2023/09/30 01:49:19;;;;;;;3.45;1.98;;;23.20;80.20;;;;;;10517903;28;20484;-32
2023/09/30 01:54:22;;;;;;;5.18;2.08;;;23.10;80.60;;;;;;10507162;28;20032;-32
2023/09/30 01:59:25;;;;;;;4.10;2.03;;;23.10;80.00;;;;;;10502443;28;20544;-31
2023/09/30 02:04:27;;;;;;;3.17;1.70;;;23.10;80.30;;;;;;10505401;28;20477;-32
2023/09/30 02:09:30;;;;;;;3.85;1.80;;;23.20;80.50;;;;;;10496092;28;20124;-32
2023/09/30 02:14:33;;;;;;;3.03;1.85;;;23.10;80.40;;;;;;10481771;28;20082;-33
2023/09/30 02:19:34;;;;;;;3.08;1.45;;;23.10;80.40;;;;;;10489494;28;20549;-30
2023/09/30 02:24:40;;;;;;;3.08;1.52;;;23.10;80.30;;;;;;10487761;28;20461;-34
2023/09/30 02:29:42;;;;;;;3.17;1.50;;;23.10;80.20;;;;;;10479535;28;20044;-31
2023/09/30 02:34:44;;;;;;;2.97;1.70;;;23.10;80.40;;;;;;10481703;28;20044;-31
2023/09/30 02:39:47;;;;;;;2.42;1.70;;;23.10;81.10;;;;;;10485639;28;20461;-32
2023/09/30 02:44:49;;;;;;;5.40;2.03;;;23.10;80.70;;;;;;10484613;28;20037;-31
2023/09/30 02:49:51;;;;;;;2.22;1.50;;;23.00;80.60;;;;;;10482528;28;20354;-30
2023/09/30 02:54:54;;;;;;;3.15;1.58;;;23.00;80.60;;;;;;10505142;28;20539;-31
2023/09/30 03:15:32;;;;;;;2.70;1.60;;;22.90;80.70;;;;;;10560952;27;20155;-31
2023/09/30 03:20:34;;;;;;;1.95;1.35;;;22.90;81.20;;;;;;10559906;28;20044;-31
2023/09/30 03:25:36;;;;;;;4.78;2.05;;;22.90;81.60;;;;;;10569594;28;20067;-38
2023/09/30 03:30:41;;;;;;;2.55;1.27;;;23.00;80.80;;;;;;10581177;28;20430;-40
2023/09/30 03:35:42;;;;;;;3.08;1.40;;;23.00;80.80;;;;;;10586684;28;20039;-32
2023/09/30 03:40:47;;;;;;;3.78;1.30;;;23.00;80.70;;;;;;10570213;28;20110;-31
2023/09/30 03:45:51;;;;;;;2.20;1.30;;;23.00;80.80;;;;;;10566645;28;20392;-32
2023/09/30 03:50:53;;;;;;;2.78;1.42;;;22.90;80.70;;;;;;10566613;28;20474;-31
2023/09/30 03:55:56;;;;;;;1.90;1.38;;;22.90;80.70;;;;;;10553435;28;20031;-37
2023/09/30 04:01:01;;;;;;;3.30;1.60;;;23.00;80.40;;;;;;10569731;28;20044;-35
2023/09/30 04:06:03;;;;;;;2.35;1.40;;;22.90;80.40;;;;;;10568102;28;20043;-31
2023/09/30 04:11:05;;;;;;;2.03;1.30;;;22.90;80.70;;;;;;10560564;28;20040;-33
2023/09/30 04:16:09;;;;;;;2.78;1.27;;;22.90;80.50;;;;;;10559983;28;20090;-32
2023/09/30 04:21:11;;;;;;;2.65;1.20;;;22.90;80.70;;;;;;10553453;28;20464;-33
2023/09/30 04:26:13;;;;;;;2.17;1.00;;;22.90;80.50;;;;;;10528652;28;20051;-33
2023/09/30 04:31:16;;;;;;;1.70;1.13;;;22.90;80.50;;;;;;10522679;28;20041;-32
2023/09/30 04:36:19;;;;;;;3.88;1.73;;;22.90;80.50;;;;;;10523048;28;20611;-32
2023/09/30 04:41:21;;;;;;;3.58;1.65;;;22.90;80.40;;;;;;10524572;28;20411;-37
2023/09/30 04:46:24;;;;;;;;;;;22.80;80.20;;;;;;10512809;28;20036;-32
2023/09/30 04:51:27;;;;;;;1.55;1.10;;;22.80;80.30;;;;;;10535803;28;20022;-32
2023/09/30 04:56:29;;;;;;;2.25;1.25;;;22.90;80.10;;;;;;10517974;28;20046;-32
2023/09/30 05:01:32;;;;;;;;;;;22.90;80.10;;;;;;10539257;28;20040;-31
2023/09/30 05:06:34;;;;;;;2.90;1.13;;;22.90;80.20;;;;;;10538875;28;19922;-31
2023/09/30 05:11:36;;;;;;;3.80;1.42;;;22.80;80.10;;;;;;10518147;28;20546;-38
2023/09/30 05:16:39;;;;;;;;;;;22.90;80.00;;;;;;10531481;28;20050;-33
2023/09/30 05:21:41;;;;;;;2.38;1.23;;;22.80;80.10;;;;;;10534245;28;19941;-37
2023/09/30 05:26:42;;;;;;;2.67;1.45;;;22.80;80.10;;;;;;10523394;28;20469;-35
2023/09/30 05:31:46;;;;;;;5.55;1.60;;;22.80;80.20;;;;;;10531445;28;20044;-36
2023/09/30 05:36:47;;;;;;;2.92;1.40;;;22.90;80.20;;;;;;10511758;28;20047;-31
2023/09/30 05:41:50;;;;;;;3.40;1.42;;;22.80;80.20;;;;;;10520084;28;20051;-33
2023/09/30 05:46:54;;;;;;;3.50;1.33;;;22.80;80.20;;;;;;10528631;28;20491;-30
2023/09/30 05:51:56;;;;;;;2.95;1.48;;;22.80;80.10;;;;;;10532820;28;20040;-31
2023/09/30 05:57:00;;;;;;;2.45;1.40;;;22.80;80.20;;;;;;10512413;28;20040;-32
2023/09/30 06:02:04;;;;;;;3.53;1.67;;;22.80;80.30;;;;;;10525208;28;20048;-31
2023/09/30 06:07:06;;;;;;;2.88;1.58;;;22.80;80.40;;;;;;10522277;28;20040;-32
2023/09/30 06:12:09;;;;;;;3.58;1.20;;;22.80;80.10;;;;;;10520082;28;20086;-32
2023/09/30 06:17:12;;;;;;;2.92;1.70;;;22.80;80.40;;;;;;10523303;28;20040;-32
2023/09/30 06:22:14;;;;;;;3.53;1.60;;;22.80;80.20;;;;;;10508582;28;20507;-38
2023/09/30 06:27:16;;;;;;;2.58;1.40;;;22.70;80.20;;;;;;10500848;28;20052;-31
2023/09/30 06:32:20;;;;;;;2.92;1.58;;;22.80;80.20;;;;;;10511929;28;20044;-54
2023/09/30 06:37:21;;;;;;;3.42;1.85;;;22.80;79.90;;;;;;10523351;28;20037;-32
2023/09/30 06:42:23;;;;;;;3.22;1.77;;;22.80;79.90;;;;;;10519051;28;20043;-31
2023/09/30 06:47:26;;;;;;;3.22;1.92;;;22.80;80.00;;;;;;10506288;28;20075;-31
2023/09/30 06:52:28;;;;;;;3.15;1.55;;;22.80;79.60;;;;;;10506285;28;20060;-29
2023/09/30 06:57:30;;;;;;;;;;;22.80;79.70;;;;;;10513466;28;20052;-32
2023/09/30 07:02:33;;;;;;;4.37;1.80;;;22.80;79.70;;;;;;10524445;28;19920;-31
2023/09/30 07:07:35;;;;;;;4.03;2.00;;;22.80;80.00;;;;;;10515424;28;20455;-32
2023/09/30 07:12:39;;;;;;;4.07;2.10;;;22.80;79.70;;;;;;10510597;28;20463;-32
2023/09/30 07:17:43;;;;;;;3.75;1.90;;;22.80;79.60;;;;;;10525186;28;20051;-33
2023/09/30 07:22:45;;;;;;;4.50;2.10;;;22.50;81.50;;;;;;10533231;28;20066;-34
2023/09/30 07:27:47;;;;;;;4.03;2.00;;;22.70;80.30;;;;;;10516387;28;20044;-33
2023/09/30 07:32:51;;;;;;;2.03;1.25;;;22.80;79.90;;;;;;10520270;28;20044;-31
2023/09/30 07:37:53;;;;;;;8.20;3.58;;;22.80;79.60;;;;;;10507386;28;20067;-30
2023/09/30 07:42:55;;;;;;;4.03;2.03;;;21.90;85.90;;;;;;10523196;28;20465;-39
2023/09/30 07:47:59;;;;;;;;;;;22.40;82.60;;;;;;10518559;28;20049;-35
2023/09/30 07:53:01;;;;;;;3.10;2.15;;;22.00;86.60;;;;;;10524879;28;19924;-32
2023/09/30 07:58:03;;;;;;;11.80;4.28;;;22.40;82.50;;;;;;10522890;28;20418;-32
2023/09/30 08:03:06;;;;;;;;;;;22.40;84.60;;;;;;10522666;28;20076;-31
2023/09/30 08:08:08;;;;;;;17.13;4.07;;;22.60;82.70;;;;;;10528608;28;19969;-41
2023/09/30 08:13:10;;;;;;;15.60;4.68;;;21.40;91.60;;;;;;10529509;28;20048;-30
2023/09/30 08:18:17;;;;;;;10.95;2.95;;;21.70;90.10;;;;;;10538372;28;22566;-36
2023/09/30 08:23:19;;;;;;;13.05;4.50;;;21.80;90.10;;;;;;10526852;28;20464;-38
2023/09/30 08:28:22;;;;;;;7.15;2.60;;;21.70;90.10;;;;;;10528088;28;20084;-32
2023/09/30 08:33:27;;;;;;;17.02;3.85;;;21.70;90.40;;;;;;10523814;28;20509;-36
2023/09/30 08:38:29;;;;;;;5.80;1.83;;;20.90;92.80;;;;;;10529697;28;20048;-38
2023/09/30 08:43:38;;;;;;;6.05;1.98;;;21.20;92.20;;;;;;10532320;28;20067;-39
2023/09/30 08:48:43;;;;;;;7.85;1.70;;;21.70;91.20;;;;;;10540886;28;20068;-32
2023/09/30 08:53:46;;;;;;;9.85;2.83;;;22.60;84.50;;;;;;10531754;28;20044;-37
2023/09/30 08:58:48;;;;;;;9.52;2.97;;;21.20;91.30;;;;;;10520116;28;20048;-32
2023/09/30 09:03:52;;;;;;;17.13;3.15;;;19.70;98.00;;;;;;10527718;28;20065;-33
2023/09/30 09:08:54;;;;;;;4.97;2.33;;;20.00;97.10;;;;;;10520602;28;20040;-33
2023/09/30 09:13:56;;;;;;;;;;;20.90;95.10;;;;;;10530798;28;20056;-32
2023/09/30 09:18:59;;;;;;;5.17;1.57;;;21.70;92.30;;;;;;10526038;28;19935;-33
2023/09/30 09:24:01;;;;;;;5.72;1.83;;;21.30;93.80;;;;;;10533240;28;20044;-33
2023/09/30 09:29:05;;;;;;;8.95;1.92;;;22.60;90.10;;;;;;10517814;28;20077;-32
2023/09/30 09:34:15;;;;;;;5.03;1.70;;;23.00;86.70;;;;;;10516399;28;20040;-37
2023/09/30 09:39:17;;;;;;;7.75;1.98;;;23.10;86.80;;;;;;10513425;28;20052;-29
2023/09/30 09:44:21;;;;;;;12.13;3.13;;;23.10;86.50;;;;;;10514039;28;20081;-37
2023/09/30 09:49:25;;;;;;;11.23;2.17;;;23.00;86.70;;;;;;10524760;28;20043;-32
2023/09/30 09:54:29;;;;;;;8.38;1.80;;;22.80;90.20;;;;;;10526929;28;20036;-32
2023/09/30 09:59:32;;;;;;;11.18;1.77;;;22.50;90.30;;;;;;10546077;28;20046;-37
2023/09/30 10:04:36;;;;;;;19.40;2.72;;;22.70;90.80;;;;;;10534538;28;20115;-36
2023/09/30 10:09:41;;;;;;;10.63;2.08;;;23.00;87.30;;;;;;10531346;28;20048;-38
2023/09/30 10:14:45;;;;;;;11.90;2.35;;;23.40;85.30;;;;;;10524306;28;20052;-37
2023/09/30 10:20:07;;;;;;;5.47;2.10;;;23.30;85.90;;;;;;10527272;28;20132;-32
2023/09/30 10:25:36;;;;;;;9.73;2.50;;;23.50;84.50;;;;;;10530113;28;20439;-33
2023/09/30 10:30:38;;;;;;;9.32;1.92;;;23.40;85.80;;;;;;10530757;28;20473;-32
2023/09/30 10:35:48;;;;;;;9.25;2.30;;;22.80;88.10;;;;;;10524951;28;20075;-33
2023/09/30 10:40:51;;;;;;;9.38;2.33;;;22.30;91.00;;;;;;10532722;28;20090;-32
2023/09/30 10:45:53;;;;;;;6.75;2.25;;;23.10;79.40;;;;;;10534865;28;20412;-29
2023/09/30 10:50:58;;;;;;;7.75;2.08;;;22.50;88.70;;;;;;10532308;28;20077;-31
2023/09/30 10:56:01;;;;;;;10.75;2.88;;;22.70;90.50;;;;;;10532390;28;20155;-35
2023/09/30 11:01:04;;;;;;;8.48;2.00;;;22.80;79.70;;;;;;10532329;28;20716;-32
2023/09/30 11:06:07;;;;;;;13.60;2.25;;;22.70;87.70;;;;;;10514966;28;20040;-32
2023/09/30 11:11:09;;;;;;;6.82;1.80;;;22.00;81.00;;;;;;10529260;28;20056;-31
2023/09/30 11:16:12;;;;;;;13.80;2.47;;;22.00;90.80;;;;;;10524947;28;20051;-31
2023/09/30 11:21:15;;;;;;;8.48;1.67;;;21.10;78.40;;;;;;10532788;28;20028;-32
2023/09/30 11:26:17;;;;;;;6.07;2.60;;;21.40;73.20;;;;;;10528065;28;20552;-30
2023/09/30 11:31:19;;;;;;;8.25;2.53;;;22.20;86.60;;;;;;10544698;28;20093;-37
2023/09/30 11:36:23;;;;;;;8.35;1.90;;;22.10;85.40;;;;;;10531953;28;20086;-37
2023/09/30 11:41:34;;;;;;;15.20;2.40;;;21.30;78.10;;;;;;10548751;28;20067;-37
2023/09/30 11:46:53;;;;;;;5.97;2.37;;;22.40;75.10;;;;;;10534033;28;20064;-37
2023/09/30 11:51:59;;;;;;;10.52;3.63;;;21.70;88.00;;;;;;10532721;28;20040;-32
2023/09/30 11:57:01;;;;;;;11.18;2.65;;;22.50;87.70;;;;;;10543296;28;20040;-32
2023/09/30 12:02:05;;;;;;;11.02;2.50;;;21.60;88.00;;;;;;10538465;28;20132;-33
2023/09/30 12:07:09;;;;;;;10.25;2.35;;;21.30;75.40;;;;;;10544444;28;20059;-32
2023/09/30 12:12:13;;;;;;;9.75;2.67;;;21.80;82.40;;;;;;10538413;28;20388;-33
2023/09/30 12:17:15;;;;;;;9.73;2.63;;;21.50;90.30;;;;;;10533331;28;20082;-30
2023/09/30 12:22:20;;;;;;;8.27;1.63;;;21.00;84.00;;;;;;10527756;28;20423;-31
2023/09/30 12:27:22;;;;;;;7.53;1.70;;;21.00;81.50;;;;;;10528919;28;20047;-33
2023/09/30 12:32:25;;;;;;;11.77;1.95;;;21.10;90.60;;;;;;10534918;28;20059;-32
2023/09/30 12:37:29;;;;;;;6.95;1.98;;;21.40;74.50;;;;;;10548559;28;20054;-33
2023/09/30 12:42:30;;;;;;;12.32;1.67;;;21.30;92.00;;;;;;10533528;28;20071;-32
2023/09/30 12:47:32;;;;;;;4.90;2.00;;;21.20;81.50;;;;;;10539349;28;20093;-30
2023/09/30 12:52:36;;;;;;;7.68;2.08;;;21.40;91.10;;;;;;10542419;28;20415;-29
2023/09/30 12:57:38;;;;;;;10.73;2.17;;;20.50;93.90;;;;;;10551605;28;20040;-34
2023/09/30 13:02:39;;;;;;;11.48;2.10;;;20.70;92.40;;;;;;10541956;28;20455;-31
2023/09/30 13:07:42;;;;;;;9.65;1.85;;;21.20;83.40;;;;;;10534815;28;20414;-31
2023/09/30 13:12:44;;;;;;;5.07;2.22;;;21.10;90.20;;;;;;10534385;28;20076;-33
2023/09/30 13:17:46;;;;;;;4.80;1.60;;;21.30;87.00;;;;;;10532476;28;20469;-32
2023/09/30 13:22:50;;;;;;;5.72;1.30;;;21.70;81.50;;;;;;10543228;28;20483;-32
2023/09/30 13:27:52;;;;;;;15.57;1.83;;;21.10;80.90;;;;;;10535828;28;20060;-32
2023/09/30 13:32:53;;;;;;;6.35;2.10;;;20.90;82.60;;;;;;10539954;28;20040;-31
2023/09/30 13:37:56;;;;;;;8.40;1.67;;;21.70;85.30;;;;;;10537541;28;20072;-35
2023/09/30 13:42:58;;;;;;;9.15;1.88;;;22.00;77.50;;;;;;10535894;28;20044;-33
2023/09/30 13:48:00;;;;;;;5.45;1.42;;;21.80;88.30;;;;;;10536600;28;20052;-37
2023/09/30 13:53:05;;;;;;;8.07;1.40;;;21.40;88.60;;;;;;10538886;28;20031;-33
2023/09/30 13:58:06;;;;;;;6.05;1.60;;;22.50;85.50;;;;;;10535151;28;20039;-32
2023/09/30 14:03:09;;;;;;;8.20;1.90;;;22.50;85.50;;;;;;10533712;28;20052;-36
2023/09/30 14:08:13;;;;;;;11.32;1.55;;;22.30;87.70;;;;;;10522271;28;20044;-34
2023/09/30 14:13:15;;;;;;;7.95;1.60;;;21.30;89.10;;;;;;10518751;28;20440;-32
2023/09/30 14:18:16;;;;;;;8.00;1.98;;;21.20;76.30;;;;;;10538499;28;20040;-32
2023/09/30 14:23:20;;;;;;;7.20;1.80;;;20.50;82.20;;;;;;10540417;28;20056;-29
2023/09/30 14:28:22;;;;;;;6.38;1.85;;;21.20;80.80;;;;;;10534200;28;20075;-32
2023/09/30 14:33:23;;;;;;;9.70;1.83;;;22.00;90.80;;;;;;10540184;28;20415;-31
2023/09/30 14:38:27;;;;;;;7.10;1.90;;;21.50;79.30;;;;;;10536185;28;20044;-36
2023/09/30 14:43:29;;;;;;;12.43;2.60;;;21.80;90.30;;;;;;10536513;28;20040;-31
2023/09/30 14:48:31;;;;;;;6.70;1.70;;;21.90;78.20;;;;;;10531506;28;20048;-32
2023/09/30 14:53:34;;;;;;;6.53;1.80;;;22.40;75.80;;;;;;10538033;28;20408;-31
2023/09/30 14:58:36;;;;;;;8.27;1.80;;;21.80;77.70;;;;;;10529616;28;20067;-38
2023/09/30 15:03:38;;;;;;;4.53;1.65;;;22.30;90.70;;;;;;10538530;28;20512;-32
2023/09/30 15:08:42;;;;;;;7.15;2.00;;;22.40;90.90;;;;;;10529517;28;20044;-30
2023/09/30 15:13:45;;;;;;;8.70;1.77;;;22.10;85.60;;;;;;10533719;28;20052;-32
2023/09/30 15:18:48;;;;;;;10.48;1.83;;;22.40;90.20;;;;;;10528850;28;20481;-32
2023/09/30 15:23:52;;;;;;;4.47;1.50;;;23.00;76.50;;;;;;10544044;28;20457;-29
2023/09/30 15:28:54;;;;;;;7.30;1.50;;;23.90;81.60;;;;;;10530722;28;20067;-32
2023/09/30 15:33:55;;;;;;;2.22;1.30;;;23.00;80.10;;;;;;10531091;28;20090;-35
2023/09/30 15:38:59;;;;;;;11.63;3.30;;;22.50;86.50;;;;;;10525712;28;20102;-31
2023/09/30 15:49:57;;;;;;;2.67;1.08;;;22.80;82.80;;;;;;10524584;28;20024;-32
2023/09/30 15:55:01;;;;;;;17.25;2.17;;;23.10;86.70;;;;;;10531053;28;20048;-32
2023/09/30 16:00:04;;;;;;;3.75;1.30;;;23.10;72.60;;;;;;10526555;28;20420;-32
2023/09/30 16:05:07;;;;;;;6.68;1.40;;;22.20;89.30;;;;;;10534667;28;20036;-33
2023/09/30 16:10:11;;;;;;;4.90;1.60;;;23.00;88.50;;;;;;10531600;28;20032;-33
2023/09/30 16:15:15;;;;;;;8.90;1.60;;;23.40;85.20;;;;;;10536332;28;20059;-37
2023/09/30 16:20:18;;;;;;;3.60;1.08;;;22.40;83.30;;;;;;10520480;28;20372;-32
2023/09/30 16:25:22;;;;;;;7.18;1.63;;;23.60;84.30;;;;;;10541791;28;20059;-31
2023/09/30 16:30:24;;;;;;;5.63;1.50;;;23.00;83.70;;;;;;10543306;28;20388;-31
2023/09/30 16:35:26;;;;;;;14.75;2.47;;;23.00;86.30;;;;;;10538396;28;20126;-31
2023/09/30 16:40:29;;;;;;;11.15;1.67;;;22.60;80.90;;;;;;10539285;28;20452;-32
2023/09/30 16:45:31;;;;;;;9.95;1.90;;;21.40;86.90;;;;;;10548834;28;20071;-31
2023/09/30 16:50:33;;;;;;;11.20;2.20;;;22.50;89.50;;;;;;10521151;28;20117;-37
2023/09/30 16:55:36;;;;;;;3.72;1.40;;;22.20;82.10;;;;;;10515725;28;20052;-32
2023/09/30 17:00:38;;;;;;;9.52;1.60;;;21.80;93.40;;;;;;10525413;28;20126;-34
2023/09/30 17:05:41;;;;;;;11.27;2.40;;;21.80;88.40;;;;;;10523471;28;20489;-33
2023/09/30 17:10:44;;;;;;;5.72;1.80;;;21.30;80.70;;;;;;10528389;28;20055;-31
2023/09/30 17:15:47;;;;;;;3.95;1.25;;;23.30;88.00;;;;;;10522536;28;20048;-33
2023/09/30 17:20:49;;;;;;;3.55;1.30;;;24.30;81.00;;;;;;10530640;28;20116;-40
2023/09/30 17:25:52;;;;;;;5.85;1.40;;;24.50;77.90;;;;;;10517510;28;20052;-35
2023/09/30 17:30:56;;;;;;;3.67;1.50;;;24.60;77.30;;;;;;10518899;28;20126;-39
2023/09/30 17:36:00;;;;;;;6.60;1.48;;;24.50;77.30;;;;;;10514323;28;20078;-34
2023/09/30 17:41:05;;;;;;;8.05;1.67;;;24.30;76.40;;;;;;10521007;28;20151;-37
2023/09/30 17:46:10;;;;;;;5.60;1.55;;;23.90;78.10;;;;;;10520047;28;20063;-39
2023/09/30 17:51:14;;;;;;;5.35;1.30;;;24.20;78.60;;;;;;10518635;28;20453;-40
2023/09/30 17:56:18;;;;;;;4.00;1.38;;;24.00;79.20;;;;;;10520671;28;20043;-35
2023/09/30 18:01:22;;;;;;;2.90;1.05;;;24.50;75.80;;;;;;10527298;28;20485;-38
2023/09/30 18:06:24;;;;;;;4.55;1.52;;;24.60;74.80;;;;;;10522239;28;20185;-34
2023/09/30 18:11:27;;;;;;;;;;;24.70;74.40;;;;;;10514330;28;20499;-41
2023/09/30 18:16:29;;;;;;;6.22;1.38;;;24.70;74.30;;;;;;10516889;28;19920;-35
2023/09/30 18:21:31;;;;;;;5.32;1.70;;;24.70;74.20;;;;;;10523980;28;20044;-36
2023/09/30 18:26:34;;;;;;;;;;;24.70;74.30;;;;;;10515727;28;20080;-36
2023/09/30 18:31:36;;;;;;;5.97;1.27;;;24.70;74.40;;;;;;10520018;28;20011;-35
2023/09/30 18:36:38;;;;;;;;;;;24.70;74.30;;;;;;10527029;28;20087;-34
2023/09/30 18:41:43;;;;;;;5.97;1.73;;;24.70;74.40;;;;;;10523745;28;20015;-40
2023/09/30 18:46:45;;;;;;;2.35;1.20;;;24.70;74.40;;;;;;10522681;28;20068;-42
2023/09/30 18:51:46;;;;;;;;;;;24.70;74.40;;;;;;10516519;28;20109;-40
2023/09/30 18:56:51;;;;;;;9.27;1.63;;;24.70;74.40;;;;;;10523474;28;19967;-31
2023/09/30 19:01:53;;;;;;;3.63;1.27;;;24.60;74.40;;;;;;10524693;28;20048;-30
2023/09/30 19:06:55;;;;;;;3.88;1.42;;;24.60;74.40;;;;;;10530409;28;20547;-30
2023/09/30 19:11:58;;;;;;;;;;;24.60;74.50;;;;;;10523072;28;20060;-38
2023/09/30 19:17:00;;;;;;;3.97;1.33;;;24.60;74.50;;;;;;10519769;28;20385;-36
2023/09/30 19:22:02;;;;;;;5.50;1.75;;;24.50;74.50;;;;;;10515446;28;20087;-43
2023/09/30 19:27:05;;;;;;;;;;;24.60;74.60;;;;;;10526571;28;20127;-31
2023/09/30 19:32:09;;;;;;;7.78;2.15;;;24.60;74.40;;;;;;10524249;28;19959;-35
2023/09/30 19:37:10;;;;;;;6.47;2.10;;;24.50;74.30;;;;;;10516543;28;20079;-36
2023/09/30 19:42:14;;;;;;;4.60;1.55;;;24.50;74.30;;;;;;10521969;28;20048;-31
2023/09/30 19:47:15;;;;;;;10.45;2.30;;;24.50;74.30;;;;;;10517019;28;20044;-30
2023/09/30 19:52:17;;;;;;;;;;;24.50;74.30;;;;;;10521705;28;20531;-38
2023/09/30 19:57:20;;;;;;;3.33;1.50;;;24.50;74.10;;;;;;10529412;28;20377;-37
2023/09/30 20:02:22;;;;;;;8.40;1.95;;;24.40;74.80;;;;;;10520132;28;20048;-40
2023/09/30 20:07:25;;;;;;;;;;;24.40;74.10;;;;;;10530689;28;20047;-38
2023/09/30 20:12:28;;;;;;;;;;;24.40;74.30;;;;;;10525050;28;19939;-31
2023/09/30 20:17:29;;;;;;;11.10;2.17;;;24.40;74.20;;;;;;10523377;28;19992;-35
2023/09/30 20:22:31;;;;;;;;;;;24.30;74.00;;;;;;10527842;28;20381;-36
2023/09/30 20:27:35;;;;;;;5.35;2.33;;;24.30;73.90;;;;;;10528347;28;20035;-31
2023/09/30 20:32:37;;;;;;;11.65;2.13;;;24.30;73.90;;;;;;10530336;28;20040;-35
2023/09/30 20:37:39;;;;;;;7.60;2.25;;;24.30;73.80;;;;;;10529827;28;20130;-35
2023/09/30 20:42:42;;;;;;;;;;;24.30;73.90;;;;;;10536491;28;20060;-31
2023/09/30 20:47:44;;;;;;;4.28;1.65;;;24.30;73.90;;;;;;10535645;28;19973;-37
2023/09/30 20:52:50;;;;;;;;;;;24.30;73.90;;;;;;10535227;28;20132;-32
2023/09/30 20:57:53;;;;;;;7.80;1.88;;;24.30;73.90;;;;;;10526125;28;20371;-36
2023/09/30 21:02:55;;;;;;;6.35;2.47;;;24.20;73.70;;;;;;10529708;28;20133;-32
2023/09/30 21:07:57;;;;;;;5.97;2.53;;;24.30;73.90;;;;;;10513986;28;20052;-38
2023/09/30 21:13:00;;;;;;;;;;;24.20;73.90;;;;;;10529266;28;20079;-33
2023/09/30 21:18:02;;;;;;;8.88;2.13;;;24.20;73.90;;;;;;10534011;28;20011;-35
2023/09/30 21:23:04;;;;;;;7.45;2.20;;;24.20;73.90;;;;;;10525419;28;20105;-34
2023/09/30 21:28:07;;;;;;;7.20;2.33;;;24.20;74.00;;;;;;10540550;28;20449;-32
2023/09/30 21:33:10;;;;;;;10.38;2.65;;;24.20;74.20;;;;;;10523480;28;20072;-31
2023/09/30 21:38:11;;;;;;;9.88;2.42;;;24.20;74.20;;;;;;10508446;28;20125;-34
2023/09/30 21:43:15;;;;;;;;;;;24.20;74.30;;;;;;10523972;28;20485;-34
2023/09/30 21:48:16;;;;;;;7.20;2.10;;;24.10;74.40;;;;;;10517682;28;19960;-31
2023/09/30 21:53:18;;;;;;;;;;;24.10;74.20;;;;;;10525283;28;20069;-42
2023/09/30 21:58:21;;;;;;;6.87;1.90;;;24.10;74.40;;;;;;10514357;28;20349;-37
2023/09/30 22:03:23;;;;;;;9.40;2.25;;;24.10;74.50;;;;;;10529007;28;20567;-31
2023/09/30 22:08:26;;;;;;;8.73;2.10;;;24.10;74.60;;;;;;10536066;28;20404;-37
2023/09/30 22:13:29;;;;;;;8.23;3.78;;;24.10;74.50;;;;;;10526817;28;20104;-35
2023/09/30 22:18:31;;;;;;;4.15;2.03;;;24.10;74.50;;;;;;10522784;28;20063;-35
2023/09/30 22:23:33;;;;;;;6.43;2.25;;;24.00;74.60;;;;;;10506699;28;20090;-36
2023/09/30 22:28:36;;;;;;;;;;;24.10;74.60;;;;;;10512070;28;20131;-36
2023/09/30 22:33:38;;;;;;;6.25;2.00;;;24.10;74.70;;;;;;10505596;28;19932;-40
2023/09/30 22:38:40;;;;;;;;;;;24.00;74.70;;;;;;10506212;28;20161;-33
2023/09/30 22:43:43;;;;;;;4.50;1.50;;;24.00;74.70;;;;;;10513918;28;19927;-41
2023/09/30 22:48:45;;;;;;;5.38;1.77;;;24.00;74.70;;;;;;10495960;28;20481;-34
2023/09/30 22:53:48;;;;;;;;;;;24.00;74.70;;;;;;10497932;28;20145;-42
2023/09/30 22:58:51;;;;;;;5.80;1.92;;;24.00;74.90;;;;;;10520952;28;19930;-29
2023/09/30 23:03:53;;;;;;;6.18;2.47;;;24.00;75.00;;;;;;10508959;28;20083;-31
2023/09/30 23:08:55;;;;;;;;;;;23.90;75.10;;;;;;10515186;28;20074;-31
2023/09/30 23:13:58;;;;;;;8.47;2.57;;;23.90;75.00;;;;;;10513580;28;20569;-37
2023/09/30 23:19:04;;;;;;;5.70;1.77;;;23.90;75.00;;;;;;10518271;28;20501;-32
2023/09/30 23:24:08;;;;;;;3.85;1.70;;;23.90;75.30;;;;;;10522812;28;20113;-32
2023/09/30 23:29:12;;;;;;;4.32;1.70;;;23.90;75.10;;;;;;10532594;28;20120;-46
2023/09/30 23:34:14;;;;;;;5.65;1.77;;;23.90;75.30;;;;;;10532926;28;20350;-38
2023/09/30 23:39:18;;;;;;;7.10;2.15;;;23.90;75.30;;;;;;10525672;28;20569;-40
2023/09/30 23:44:21;;;;;;;6.28;2.13;;;23.70;75.00;;;;;;10537791;28;20138;-35
2023/09/30 23:49:27;;;;;;;5.53;2.28;;;23.80;75.70;;;;;;10529243;28;20044;-32
2023/09/30 23:54:29;;;;;;;3.92;1.88;;;23.80;76.20;;;;;;10537910;28;20051;-37
2023/09/30 23:59:35;;;;;;;5.18;1.67;;;23.70;76.80;;;;;;10541221;28;20624;-31
